sensor_id;sensor_type;location;lat;lon;timestamp;P1;durP1;ratioP1;P2;durP2;ratioP2
7193;SDS011;3638;48.820;9.244;2023-04-01T00:01:09;2.80;;;1.90;;
7193;SDS011;3638;48.820;9.244;2023-04-01T00:03:39;4.03;;;1.87;;
7193;SDS011;3638;48.820;9.244;2023-04-01T00:06:07;2.53;;;1.60;;
7193;SDS011;3638;48.820;9.244;2023-04-01T00:08:35;2.73;;;1.93;;
7193;SDS011;3638;48.820;9.244;2023-04-01T00:11:03;1.73;;;1.63;;
7193;SDS011;3638;48.820;9.244;2023-04-01T00:13:30;2.03;;;1.67;;
7193;SDS011;3638;48.820;9.244;2023-04-01T00:15:57;4.73;;;2.00;;
7193;SDS011;3638;48.820;9.244;2023-04-01T00:18:24;2.10;;;2.00;;
7193;SDS011;3638;48.820;9.244;2023-04-01T00:20:52;1.97;;;1.83;;
7193;SDS011;3638;48.820;9.244;2023-04-01T00:23:20;2.80;;;1.90;;
7193;SDS011;3638;48.820;9.244;2023-04-01T00:25:47;1.80;;;1.70;;
7193;SDS011;3638;48.820;9.244;2023-04-01T00:28:16;3.80;;;2.20;;
7193;SDS011;3638;48.820;9.244;2023-04-01T00:30:44;2.80;;;2.07;;
7193;SDS011;3638;48.820;9.244;2023-04-01T00:33:11;1.97;;;1.70;;
7193;SDS011;3638;48.820;9.244;2023-04-01T00:35:38;1.90;;;1.70;;
7193;SDS011;3638;48.820;9.244;2023-04-01T00:38:06;2.03;;;1.90;;
7193;SDS011;3638;48.820;9.244;2023-04-01T00:40:34;3.13;;;2.00;;
7193;SDS011;3638;48.820;9.244;2023-04-01T00:43:02;2.33;;;2.00;;
7193;SDS011;3638;48.820;9.244;2023-04-01T00:45:38;2.23;;;2.03;;
7193;SDS011;3638;48.820;9.244;2023-04-01T00:48:07;3.50;;;2.07;;
7193;SDS011;3638;48.820;9.244;2023-04-01T00:50:38;2.70;;;2.00;;
7193;SDS011;3638;48.820;9.244;2023-04-01T00:53:09;4.40;;;2.10;;
7193;SDS011;3638;48.820;9.244;2023-04-01T00:55:37;2.03;;;1.73;;
7193;SDS011;3638;48.820;9.244;2023-04-01T00:58:11;4.07;;;2.33;;
7193;SDS011;3638;48.820;9.244;2023-04-01T01:00:44;4.40;;;2.00;;
7193;SDS011;3638;48.820;9.244;2023-04-01T01:03:12;2.87;;;2.00;;
7193;SDS011;3638;48.820;9.244;2023-04-01T01:05:46;3.90;;;1.90;;
7193;SDS011;3638;48.820;9.244;2023-04-01T01:08:45;3.07;;;2.00;;
7193;SDS011;3638;48.820;9.244;2023-04-01T01:11:26;5.63;;;2.30;;
7193;SDS011;3638;48.820;9.244;2023-04-01T01:14:03;1.87;;;1.70;;
7193;SDS011;3638;48.820;9.244;2023-04-01T01:16:41;3.90;;;2.30;;
7193;SDS011;3638;48.820;9.244;2023-04-01T01:19:14;4.20;;;2.10;;
7193;SDS011;3638;48.820;9.244;2023-04-01T01:22:09;4.10;;;2.23;;
7193;SDS011;3638;48.820;9.244;2023-04-01T01:24:52;2.37;;;2.17;;
7193;SDS011;3638;48.820;9.244;2023-04-01T01:27:37;2.10;;;1.90;;
7193;SDS011;3638;48.820;9.244;2023-04-01T01:30:14;3.93;;;2.00;;
7193;SDS011;3638;48.820;9.244;2023-04-01T01:33:04;3.43;;;1.90;;
7193;SDS011;3638;48.820;9.244;2023-04-01T01:35:44;4.17;;;1.90;;
7193;SDS011;3638;48.820;9.244;2023-04-01T01:38:15;3.70;;;2.00;;
7193;SDS011;3638;48.820;9.244;2023-04-01T01:40:45;3.60;;;2.10;;
7193;SDS011;3638;48.820;9.244;2023-04-01T01:43:19;4.33;;;1.90;;
7193;SDS011;3638;48.820;9.244;2023-04-01T01:45:50;1.93;;;1.73;;
7193;SDS011;3638;48.820;9.244;2023-04-01T01:48:21;3.90;;;1.80;;
7193;SDS011;3638;48.820;9.244;2023-04-01T01:50:51;4.60;;;2.00;;
7193;SDS011;3638;48.820;9.244;2023-04-01T01:53:19;3.27;;;2.00;;
7193;SDS011;3638;48.820;9.244;2023-04-01T01:55:47;2.43;;;1.80;;
7193;SDS011;3638;48.820;9.244;2023-04-01T01:58:16;1.97;;;1.77;;
7193;SDS011;3638;48.820;9.244;2023-04-01T02:00:48;3.57;;;1.93;;
7193;SDS011;3638;48.820;9.244;2023-04-01T02:03:19;2.70;;;1.90;;
7193;SDS011;3638;48.820;9.244;2023-04-01T02:05:47;4.10;;;1.97;;
7193;SDS011;3638;48.820;9.244;2023-04-01T02:08:20;2.07;;;1.87;;
7193;SDS011;3638;48.820;9.244;2023-04-01T02:10:54;3.67;;;1.80;;
7193;SDS011;3638;48.820;9.244;2023-04-01T02:13:28;2.00;;;1.90;;
7193;SDS011;3638;48.820;9.244;2023-04-01T02:16:02;3.10;;;2.00;;
7193;SDS011;3638;48.820;9.244;2023-04-01T02:18:34;4.00;;;1.80;;
7193;SDS011;3638;48.820;9.244;2023-04-01T02:21:05;2.03;;;1.60;;
7193;SDS011;3638;48.820;9.244;2023-04-01T02:23:33;6.30;;;2.20;;
7193;SDS011;3638;48.820;9.244;2023-04-01T02:26:02;3.77;;;2.00;;
7193;SDS011;3638;48.820;9.244;2023-04-01T02:28:33;3.30;;;2.23;;
7193;SDS011;3638;48.820;9.244;2023-04-01T02:31:03;5.00;;;1.90;;
7193;SDS011;3638;48.820;9.244;2023-04-01T02:33:31;2.37;;;2.17;;
7193;SDS011;3638;48.820;9.244;2023-04-01T02:35:58;4.00;;;2.00;;
7193;SDS011;3638;48.820;9.244;2023-04-01T02:38:26;4.13;;;1.90;;
7193;SDS011;3638;48.820;9.244;2023-04-01T02:40:56;3.87;;;1.80;;
7193;SDS011;3638;48.820;9.244;2023-04-01T02:43:25;2.10;;;1.70;;
7193;SDS011;3638;48.820;9.244;2023-04-01T02:45:51;1.77;;;1.67;;
7193;SDS011;3638;48.820;9.244;2023-04-01T02:48:18;1.87;;;1.77;;
7193;SDS011;3638;48.820;9.244;2023-04-01T02:50:45;2.10;;;1.90;;
7193;SDS011;3638;48.820;9.244;2023-04-01T02:53:12;2.87;;;1.87;;
7193;SDS011;3638;48.820;9.244;2023-04-01T02:55:40;1.77;;;1.67;;
7193;SDS011;3638;48.820;9.244;2023-04-01T02:58:07;2.00;;;1.70;;
7193;SDS011;3638;48.820;9.244;2023-04-01T03:00:34;2.03;;;1.80;;
7193;SDS011;3638;48.820;9.244;2023-04-01T03:03:01;3.57;;;2.13;;
7193;SDS011;3638;48.820;9.244;2023-04-01T03:05:29;2.43;;;1.60;;
7193;SDS011;3638;48.820;9.244;2023-04-01T03:07:56;3.83;;;1.70;;
7193;SDS011;3638;48.820;9.244;2023-04-01T03:10:22;1.70;;;1.60;;
7193;SDS011;3638;48.820;9.244;2023-04-01T03:12:51;3.03;;;1.70;;
7193;SDS011;3638;48.820;9.244;2023-04-01T03:15:17;1.83;;;1.70;;
7193;SDS011;3638;48.820;9.244;2023-04-01T03:17:44;1.90;;;1.80;;
7193;SDS011;3638;48.820;9.244;2023-04-01T03:20:12;1.80;;;1.70;;
7193;SDS011;3638;48.820;9.244;2023-04-01T03:22:39;1.77;;;1.67;;
7193;SDS011;3638;48.820;9.244;2023-04-01T03:25:07;2.63;;;1.70;;
7193;SDS011;3638;48.820;9.244;2023-04-01T03:27:34;1.70;;;1.60;;
7193;SDS011;3638;48.820;9.244;2023-04-01T03:30:03;3.90;;;1.70;;
7193;SDS011;3638;48.820;9.244;2023-04-01T03:32:31;1.70;;;1.60;;
7193;SDS011;3638;48.820;9.244;2023-04-01T03:34:58;1.70;;;1.60;;
7193;SDS011;3638;48.820;9.244;2023-04-01T03:37:25;2.07;;;1.73;;
7193;SDS011;3638;48.820;9.244;2023-04-01T03:39:53;1.90;;;1.60;;
7193;SDS011;3638;48.820;9.244;2023-04-01T03:42:20;1.60;;;1.50;;
7193;SDS011;3638;48.820;9.244;2023-04-01T03:44:46;1.80;;;1.70;;
7193;SDS011;3638;48.820;9.244;2023-04-01T03:47:14;2.20;;;1.80;;
7193;SDS011;3638;48.820;9.244;2023-04-01T03:49:41;1.80;;;1.70;;
7193;SDS011;3638;48.820;9.244;2023-04-01T03:52:09;1.70;;;1.60;;
7193;SDS011;3638;48.820;9.244;2023-04-01T03:54:36;3.57;;;1.70;;
7193;SDS011;3638;48.820;9.244;2023-04-01T03:57:03;2.50;;;1.90;;
7193;SDS011;3638;48.820;9.244;2023-04-01T03:59:30;1.80;;;1.70;;
7193;SDS011;3638;48.820;9.244;2023-04-01T04:01:57;2.53;;;1.80;;
7193;SDS011;3638;48.820;9.244;2023-04-01T04:04:26;2.20;;;2.00;;
7193;SDS011;3638;48.820;9.244;2023-04-01T04:06:53;4.40;;;2.27;;
7193;SDS011;3638;48.820;9.244;2023-04-01T04:09:20;2.03;;;1.80;;
7193;SDS011;3638;48.820;9.244;2023-04-01T04:11:47;1.77;;;1.67;;
7193;SDS011;3638;48.820;9.244;2023-04-01T04:14:14;2.10;;;1.80;;
7193;SDS011;3638;48.820;9.244;2023-04-01T04:16:42;2.00;;;1.90;;
7193;SDS011;3638;48.820;9.244;2023-04-01T04:19:08;2.33;;;2.13;;
7193;SDS011;3638;48.820;9.244;2023-04-01T04:21:37;2.00;;;1.73;;
7193;SDS011;3638;48.820;9.244;2023-04-01T04:24:04;2.83;;;1.70;;
7193;SDS011;3638;48.820;9.244;2023-04-01T04:26:31;2.87;;;1.70;;
7193;SDS011;3638;48.820;9.244;2023-04-01T04:28:58;2.43;;;1.80;;
7193;SDS011;3638;48.820;9.244;2023-04-01T04:31:26;2.33;;;1.83;;
7193;SDS011;3638;48.820;9.244;2023-04-01T04:33:53;1.93;;;1.80;;
7193;SDS011;3638;48.820;9.244;2023-04-01T04:36:20;1.70;;;1.60;;
7193;SDS011;3638;48.820;9.244;2023-04-01T04:38:49;1.87;;;1.73;;
7193;SDS011;3638;48.820;9.244;2023-04-01T04:41:16;1.83;;;1.67;;
7193;SDS011;3638;48.820;9.244;2023-04-01T04:43:48;1.73;;;1.63;;
7193;SDS011;3638;48.820;9.244;2023-04-01T04:46:17;1.80;;;1.70;;
7193;SDS011;3638;48.820;9.244;2023-04-01T04:48:44;2.10;;;1.80;;
7193;SDS011;3638;48.820;9.244;2023-04-01T04:51:14;3.50;;;1.90;;
7193;SDS011;3638;48.820;9.244;2023-04-01T04:53:43;1.80;;;1.70;;
7193;SDS011;3638;48.820;9.244;2023-04-01T04:56:11;2.63;;;1.77;;
7193;SDS011;3638;48.820;9.244;2023-04-01T04:58:39;1.87;;;1.77;;
7193;SDS011;3638;48.820;9.244;2023-04-01T05:01:07;2.20;;;1.87;;
7193;SDS011;3638;48.820;9.244;2023-04-01T05:03:35;1.73;;;1.60;;
7193;SDS011;3638;48.820;9.244;2023-04-01T05:06:03;1.80;;;1.70;;
7193;SDS011;3638;48.820;9.244;2023-04-01T05:08:31;1.97;;;1.80;;
7193;SDS011;3638;48.820;9.244;2023-04-01T05:10:59;2.30;;;1.90;;
7193;SDS011;3638;48.820;9.244;2023-04-01T05:13:27;2.23;;;2.03;;
7193;SDS011;3638;48.820;9.244;2023-04-01T05:15:54;1.80;;;1.70;;
7193;SDS011;3638;48.820;9.244;2023-04-01T05:18:21;2.23;;;2.03;;
7193;SDS011;3638;48.820;9.244;2023-04-01T05:20:48;2.30;;;2.10;;
7193;SDS011;3638;48.820;9.244;2023-04-01T05:23:18;1.93;;;1.83;;
7193;SDS011;3638;48.820;9.244;2023-04-01T05:25:47;1.90;;;1.80;;
7193;SDS011;3638;48.820;9.244;2023-04-01T05:28:14;1.97;;;1.87;;
7193;SDS011;3638;48.820;9.244;2023-04-01T05:30:43;6.37;;;2.27;;
7193;SDS011;3638;48.820;9.244;2023-04-01T05:33:11;2.23;;;1.80;;
7193;SDS011;3638;48.820;9.244;2023-04-01T05:35:39;3.67;;;2.33;;
7193;SDS011;3638;48.820;9.244;2023-04-01T05:38:06;3.53;;;1.70;;
7193;SDS011;3638;48.820;9.244;2023-04-01T05:40:33;3.17;;;1.90;;
7193;SDS011;3638;48.820;9.244;2023-04-01T05:43:00;3.47;;;1.90;;
7193;SDS011;3638;48.820;9.244;2023-04-01T05:45:27;1.90;;;1.80;;
7193;SDS011;3638;48.820;9.244;2023-04-01T05:47:55;2.33;;;1.90;;
7193;SDS011;3638;48.820;9.244;2023-04-01T05:50:22;4.60;;;2.10;;
7193;SDS011;3638;48.820;9.244;2023-04-01T05:52:49;2.23;;;1.90;;
7193;SDS011;3638;48.820;9.244;2023-04-01T05:55:16;3.27;;;1.90;;
7193;SDS011;3638;48.820;9.244;2023-04-01T05:57:44;3.60;;;1.83;;
7193;SDS011;3638;48.820;9.244;2023-04-01T06:00:13;3.63;;;2.33;;
7193;SDS011;3638;48.820;9.244;2023-04-01T06:02:41;2.80;;;1.80;;
7193;SDS011;3638;48.820;9.244;2023-04-01T06:05:13;3.13;;;1.87;;
7193;SDS011;3638;48.820;9.244;2023-04-01T06:07:44;2.10;;;1.90;;
7193;SDS011;3638;48.820;9.244;2023-04-01T06:10:15;2.00;;;1.90;;
7193;SDS011;3638;48.820;9.244;2023-04-01T06:12:51;3.10;;;1.70;;
7193;SDS011;3638;48.820;9.244;2023-04-01T06:15:38;1.60;;;1.50;;
7193;SDS011;3638;48.820;9.244;2023-04-01T06:18:16;2.13;;;1.77;;
7193;SDS011;3638;48.820;9.244;2023-04-01T06:21:03;1.80;;;1.70;;
7193;SDS011;3638;48.820;9.244;2023-04-01T06:23:57;2.60;;;1.70;;
7193;SDS011;3638;48.820;9.244;2023-04-01T06:26:39;2.17;;;1.97;;
7193;SDS011;3638;48.820;9.244;2023-04-01T06:29:19;4.50;;;1.70;;
7193;SDS011;3638;48.820;9.244;2023-04-01T06:32:16;1.73;;;1.63;;
7193;SDS011;3638;48.820;9.244;2023-04-01T06:40:59;2.37;;;1.57;;
7193;SDS011;3638;48.820;9.244;2023-04-01T06:44:05;2.43;;;1.90;;
7193;SDS011;3638;48.820;9.244;2023-04-01T06:46:44;2.10;;;1.70;;
7193;SDS011;3638;48.820;9.244;2023-04-01T06:52:12;1.70;;;1.60;;
7193;SDS011;3638;48.820;9.244;2023-04-01T06:54:52;2.73;;;1.70;;
7193;SDS011;3638;48.820;9.244;2023-04-01T06:57:28;2.10;;;1.90;;
7193;SDS011;3638;48.820;9.244;2023-04-01T07:00:00;1.97;;;1.80;;
7193;SDS011;3638;48.820;9.244;2023-04-01T07:02:32;2.87;;;1.50;;
7193;SDS011;3638;48.820;9.244;2023-04-01T07:05:05;4.57;;;1.67;;
7193;SDS011;3638;48.820;9.244;2023-04-01T07:07:35;1.77;;;1.67;;
7193;SDS011;3638;48.820;9.244;2023-04-01T07:10:10;2.03;;;1.50;;
7193;SDS011;3638;48.820;9.244;2023-04-01T07:12:44;1.60;;;1.50;;
7193;SDS011;3638;48.820;9.244;2023-04-01T07:15:17;2.80;;;2.00;;
7193;SDS011;3638;48.820;9.244;2023-04-01T07:17:48;2.07;;;1.87;;
7193;SDS011;3638;48.820;9.244;2023-04-01T07:20:20;1.53;;;1.40;;
7193;SDS011;3638;48.820;9.244;2023-04-01T07:22:52;2.27;;;1.87;;
7193;SDS011;3638;48.820;9.244;2023-04-01T07:25:24;1.53;;;1.43;;
7193;SDS011;3638;48.820;9.244;2023-04-01T07:27:56;2.43;;;1.57;;
7193;SDS011;3638;48.820;9.244;2023-04-01T07:30:30;2.43;;;1.57;;
7193;SDS011;3638;48.820;9.244;2023-04-01T07:33:12;1.60;;;1.50;;
7193;SDS011;3638;48.820;9.244;2023-04-01T07:35:47;2.87;;;1.63;;
7193;SDS011;3638;48.820;9.244;2023-04-01T07:38:25;2.50;;;1.77;;
7193;SDS011;3638;48.820;9.244;2023-04-01T07:41:05;2.20;;;1.90;;
7193;SDS011;3638;48.820;9.244;2023-04-01T07:43:44;5.03;;;1.90;;
7193;SDS011;3638;48.820;9.244;2023-04-01T07:46:32;1.80;;;1.50;;
7193;SDS011;3638;48.820;9.244;2023-04-01T07:49:26;3.80;;;3.03;;
7193;SDS011;3638;48.820;9.244;2023-04-01T07:52:01;2.63;;;2.00;;
7193;SDS011;3638;48.820;9.244;2023-04-01T07:54:37;1.70;;;1.60;;
7193;SDS011;3638;48.820;9.244;2023-04-01T07:57:11;2.70;;;1.87;;
7193;SDS011;3638;48.820;9.244;2023-04-01T07:59:44;2.70;;;1.90;;
7193;SDS011;3638;48.820;9.244;2023-04-01T08:02:25;2.50;;;1.60;;
7193;SDS011;3638;48.820;9.244;2023-04-01T08:05:11;2.57;;;1.60;;
7193;SDS011;3638;48.820;9.244;2023-04-01T08:07:48;2.30;;;2.10;;
7193;SDS011;3638;48.820;9.244;2023-04-01T08:10:22;3.30;;;1.90;;
7193;SDS011;3638;48.820;9.244;2023-04-01T08:13:00;2.87;;;1.60;;
7193;SDS011;3638;48.820;9.244;2023-04-01T08:15:36;1.60;;;1.50;;
7193;SDS011;3638;48.820;9.244;2023-04-01T08:18:13;1.87;;;1.67;;
7193;SDS011;3638;48.820;9.244;2023-04-01T08:20:50;2.10;;;1.90;;
7193;SDS011;3638;48.820;9.244;2023-04-01T08:23:22;1.97;;;1.77;;
7193;SDS011;3638;48.820;9.244;2023-04-01T08:25:52;1.80;;;1.70;;
7193;SDS011;3638;48.820;9.244;2023-04-01T08:28:29;2.70;;;2.00;;
7193;SDS011;3638;48.820;9.244;2023-04-01T08:31:04;1.63;;;1.53;;
7193;SDS011;3638;48.820;9.244;2023-04-01T08:33:35;1.60;;;1.50;;
7193;SDS011;3638;48.820;9.244;2023-04-01T08:36:05;1.60;;;1.50;;
7193;SDS011;3638;48.820;9.244;2023-04-01T08:38:38;1.70;;;1.40;;
7193;SDS011;3638;48.820;9.244;2023-04-01T08:41:12;1.80;;;1.70;;
7193;SDS011;3638;48.820;9.244;2023-04-01T08:44:08;1.40;;;1.30;;
7193;SDS011;3638;48.820;9.244;2023-04-01T08:47:19;1.73;;;1.57;;
7193;SDS011;3638;48.820;9.244;2023-04-01T08:50:12;2.63;;;2.13;;
7193;SDS011;3638;48.820;9.244;2023-04-01T08:53:11;2.20;;;1.80;;
7193;SDS011;3638;48.820;9.244;2023-04-01T08:55:51;2.23;;;1.50;;
7193;SDS011;3638;48.820;9.244;2023-04-01T09:01:44;1.60;;;1.50;;
7193;SDS011;3638;48.820;9.244;2023-04-01T09:04:25;1.70;;;1.60;;
7193;SDS011;3638;48.820;9.244;2023-04-01T09:07:12;3.13;;;1.70;;
7193;SDS011;3638;48.820;9.244;2023-04-01T09:10:11;1.63;;;1.53;;
7193;SDS011;3638;48.820;9.244;2023-04-01T09:12:59;1.93;;;1.83;;
7193;SDS011;3638;48.820;9.244;2023-04-01T09:15:42;2.47;;;1.73;;
7193;SDS011;3638;48.820;9.244;2023-04-01T09:18:52;2.67;;;1.70;;
7193;SDS011;3638;48.820;9.244;2023-04-01T09:21:45;1.70;;;1.60;;
7193;SDS011;3638;48.820;9.244;2023-04-01T09:24:42;1.80;;;1.70;;
7193;SDS011;3638;48.820;9.244;2023-04-01T09:27:43;1.80;;;1.70;;
7193;SDS011;3638;48.820;9.244;2023-04-01T09:30:25;1.60;;;1.50;;
7193;SDS011;3638;48.820;9.244;2023-04-01T09:36:16;1.50;;;1.40;;
7193;SDS011;3638;48.820;9.244;2023-04-01T09:39:03;1.60;;;1.50;;
7193;SDS011;3638;48.820;9.244;2023-04-01T09:42:05;1.40;;;1.40;;
7193;SDS011;3638;48.820;9.244;2023-04-01T09:44:43;2.20;;;1.87;;
7193;SDS011;3638;48.820;9.244;2023-04-01T09:47:19;1.53;;;1.43;;
7193;SDS011;3638;48.820;9.244;2023-04-01T09:50:14;1.60;;;1.50;;
7193;SDS011;3638;48.820;9.244;2023-04-01T09:52:58;1.70;;;1.60;;
7193;SDS011;3638;48.820;9.244;2023-04-01T10:02:19;1.40;;;1.30;;
7193;SDS011;3638;48.820;9.244;2023-04-01T10:12:39;2.27;;;1.50;;
7193;SDS011;3638;48.820;9.244;2023-04-01T10:15:53;1.33;;;1.30;;
7193;SDS011;3638;48.820;9.244;2023-04-01T10:19:00;1.30;;;1.30;;
7193;SDS011;3638;48.820;9.244;2023-04-01T10:22:11;1.30;;;1.30;;
7193;SDS011;3638;48.820;9.244;2023-04-01T10:28:14;1.20;;;1.20;;
7193;SDS011;3638;48.820;9.244;2023-04-01T10:31:21;1.57;;;1.47;;
7193;SDS011;3638;48.820;9.244;2023-04-01T10:34:13;1.37;;;1.37;;
7193;SDS011;3638;48.820;9.244;2023-04-01T10:37:40;1.37;;;1.37;;
7193;SDS011;3638;48.820;9.244;2023-04-01T10:40:37;1.93;;;1.83;;
7193;SDS011;3638;48.820;9.244;2023-04-01T10:43:26;2.40;;;2.20;;
7193;SDS011;3638;48.820;9.244;2023-04-01T10:46:32;1.70;;;1.60;;
7193;SDS011;3638;48.820;9.244;2023-04-01T10:52:54;3.13;;;2.77;;
7193;SDS011;3638;48.820;9.244;2023-04-01T11:05:42;2.40;;;1.83;;
7193;SDS011;3638;48.820;9.244;2023-04-01T11:08:57;2.40;;;2.20;;
7193;SDS011;3638;48.820;9.244;2023-04-01T11:11:56;2.20;;;2.00;;
7193;SDS011;3638;48.820;9.244;2023-04-01T11:15:03;1.27;;;1.27;;
7193;SDS011;3638;48.820;9.244;2023-04-01T11:24:51;2.47;;;2.27;;
7193;SDS011;3638;48.820;9.244;2023-04-01T11:27:44;3.03;;;2.30;;
7193;SDS011;3638;48.820;9.244;2023-04-01T11:30:29;2.33;;;2.13;;
7193;SDS011;3638;48.820;9.244;2023-04-01T11:33:11;2.23;;;1.50;;
7193;SDS011;3638;48.820;9.244;2023-04-01T11:35:49;2.00;;;1.63;;
7193;SDS011;3638;48.820;9.244;2023-04-01T11:38:49;3.17;;;1.60;;
7193;SDS011;3638;48.820;9.244;2023-04-01T11:41:36;1.60;;;1.50;;
7193;SDS011;3638;48.820;9.244;2023-04-01T11:44:16;1.63;;;1.10;;
7193;SDS011;3638;48.820;9.244;2023-04-01T11:49:48;1.50;;;1.40;;
7193;SDS011;3638;48.820;9.244;2023-04-01T11:55:28;1.50;;;1.30;;
7193;SDS011;3638;48.820;9.244;2023-04-01T11:58:19;1.20;;;1.20;;
7193;SDS011;3638;48.820;9.244;2023-04-01T12:01:15;1.27;;;1.27;;
7193;SDS011;3638;48.820;9.244;2023-04-01T12:04:00;1.73;;;1.30;;
7193;SDS011;3638;48.820;9.244;2023-04-01T12:06:54;1.20;;;1.20;;
7193;SDS011;3638;48.820;9.244;2023-04-01T12:09:31;1.10;;;1.10;;
7193;SDS011;3638;48.820;9.244;2023-04-01T12:12:10;1.30;;;1.30;;
7193;SDS011;3638;48.820;9.244;2023-04-01T12:14:46;1.83;;;1.30;;
7193;SDS011;3638;48.820;9.244;2023-04-01T12:17:28;1.30;;;1.30;;
7193;SDS011;3638;48.820;9.244;2023-04-01T12:20:13;1.20;;;1.20;;
7193;SDS011;3638;48.820;9.244;2023-04-01T12:22:56;1.50;;;1.50;;
7193;SDS011;3638;48.820;9.244;2023-04-01T12:25:38;1.90;;;1.80;;
7193;SDS011;3638;48.820;9.244;2023-04-01T12:28:41;1.70;;;1.60;;
7193;SDS011;3638;48.820;9.244;2023-04-01T12:31:27;1.97;;;1.87;;
7193;SDS011;3638;48.820;9.244;2023-04-01T12:34:15;1.80;;;1.70;;
7193;SDS011;3638;48.820;9.244;2023-04-01T12:37:16;1.73;;;1.63;;
7193;SDS011;3638;48.820;9.244;2023-04-01T12:40:01;1.20;;;1.10;;
7193;SDS011;3638;48.820;9.244;2023-04-01T12:42:48;1.20;;;1.20;;
7193;SDS011;3638;48.820;9.244;2023-04-01T12:45:29;1.20;;;1.20;;
7193;SDS011;3638;48.820;9.244;2023-04-01T12:51:26;1.50;;;1.40;;
7193;SDS011;3638;48.820;9.244;2023-04-01T12:57:33;1.20;;;1.20;;
7193;SDS011;3638;48.820;9.244;2023-04-01T13:00:25;1.30;;;1.30;;
7193;SDS011;3638;48.820;9.244;2023-04-01T13:03:12;1.67;;;1.57;;
7193;SDS011;3638;48.820;9.244;2023-04-01T13:06:09;1.43;;;1.20;;
7193;SDS011;3638;48.820;9.244;2023-04-01T13:09:11;1.60;;;1.50;;
7193;SDS011;3638;48.820;9.244;2023-04-01T13:12:04;1.40;;;1.40;;
7193;SDS011;3638;48.820;9.244;2023-04-01T13:17:53;1.20;;;1.20;;
7193;SDS011;3638;48.820;9.244;2023-04-01T13:20:34;1.50;;;1.40;;
7193;SDS011;3638;48.820;9.244;2023-04-01T13:26:13;1.30;;;1.20;;
7193;SDS011;3638;48.820;9.244;2023-04-01T13:28:50;1.10;;;1.10;;
7193;SDS011;3638;48.820;9.244;2023-04-01T13:31:28;1.20;;;1.20;;
7193;SDS011;3638;48.820;9.244;2023-04-01T13:34:13;1.00;;;1.00;;
7193;SDS011;3638;48.820;9.244;2023-04-01T13:36:54;1.10;;;1.10;;
7193;SDS011;3638;48.820;9.244;2023-04-01T13:39:35;1.37;;;1.30;;
7193;SDS011;3638;48.820;9.244;2023-04-01T13:42:32;1.40;;;1.30;;
7193;SDS011;3638;48.820;9.244;2023-04-01T13:45:09;1.30;;;1.30;;
7193;SDS011;3638;48.820;9.244;2023-04-01T13:47:50;1.30;;;1.20;;
7193;SDS011;3638;48.820;9.244;2023-04-01T13:50:47;1.20;;;1.20;;
7193;SDS011;3638;48.820;9.244;2023-04-01T13:57:34;1.10;;;1.10;;
7193;SDS011;3638;48.820;9.244;2023-04-01T14:00:17;1.03;;;1.03;;
7193;SDS011;3638;48.820;9.244;2023-04-01T14:03:26;1.33;;;1.23;;
7193;SDS011;3638;48.820;9.244;2023-04-01T14:06:02;1.00;;;1.00;;
7193;SDS011;3638;48.820;9.244;2023-04-01T14:08:45;1.10;;;1.10;;
7193;SDS011;3638;48.820;9.244;2023-04-01T14:11:32;1.00;;;1.00;;
7193;SDS011;3638;48.820;9.244;2023-04-01T14:14:11;1.57;;;1.23;;
7193;SDS011;3638;48.820;9.244;2023-04-01T14:17:01;1.10;;;1.10;;
7193;SDS011;3638;48.820;9.244;2023-04-01T14:20:02;1.20;;;1.20;;
7193;SDS011;3638;48.820;9.244;2023-04-01T14:22:52;1.77;;;1.30;;
7193;SDS011;3638;48.820;9.244;2023-04-01T14:26:03;1.13;;;1.13;;
7193;SDS011;3638;48.820;9.244;2023-04-01T14:28:41;1.20;;;1.20;;
7193;SDS011;3638;48.820;9.244;2023-04-01T14:31:20;1.20;;;1.20;;
7193;SDS011;3638;48.820;9.244;2023-04-01T14:34:04;1.20;;;1.20;;
7193;SDS011;3638;48.820;9.244;2023-04-01T14:39:51;1.67;;;1.50;;
7193;SDS011;3638;48.820;9.244;2023-04-01T14:43:10;1.10;;;1.10;;
7193;SDS011;3638;48.820;9.244;2023-04-01T14:46:06;1.40;;;1.30;;
7193;SDS011;3638;48.820;9.244;2023-04-01T14:48:52;1.40;;;1.30;;
7193;SDS011;3638;48.820;9.244;2023-04-01T14:51:28;1.33;;;1.30;;
7193;SDS011;3638;48.820;9.244;2023-04-01T14:54:03;1.30;;;1.30;;
7193;SDS011;3638;48.820;9.244;2023-04-01T14:56:36;1.20;;;1.20;;
7193;SDS011;3638;48.820;9.244;2023-04-01T14:59:07;1.30;;;1.30;;
7193;SDS011;3638;48.820;9.244;2023-04-01T15:01:42;1.10;;;1.10;;
7193;SDS011;3638;48.820;9.244;2023-04-01T15:04:28;1.20;;;1.20;;
7193;SDS011;3638;48.820;9.244;2023-04-01T15:07:15;1.23;;;1.23;;
7193;SDS011;3638;48.820;9.244;2023-04-01T15:10:10;1.10;;;1.10;;
7193;SDS011;3638;48.820;9.244;2023-04-01T15:13:19;1.37;;;1.27;;
7193;SDS011;3638;48.820;9.244;2023-04-01T15:16:06;1.30;;;1.20;;
7193;SDS011;3638;48.820;9.244;2023-04-01T15:18:47;1.50;;;1.40;;
7193;SDS011;3638;48.820;9.244;2023-04-01T15:24:37;1.40;;;1.30;;
7193;SDS011;3638;48.820;9.244;2023-04-01T15:27:18;1.40;;;1.30;;
7193;SDS011;3638;48.820;9.244;2023-04-01T15:30:05;1.60;;;1.50;;
7193;SDS011;3638;48.820;9.244;2023-04-01T15:36:13;1.20;;;1.20;;
7193;SDS011;3638;48.820;9.244;2023-04-01T15:38:57;1.23;;;1.20;;
7193;SDS011;3638;48.820;9.244;2023-04-01T15:41:36;1.27;;;1.20;;
7193;SDS011;3638;48.820;9.244;2023-04-01T15:44:40;1.20;;;1.20;;
7193;SDS011;3638;48.820;9.244;2023-04-01T15:47:33;1.17;;;1.17;;
7193;SDS011;3638;48.820;9.244;2023-04-01T15:50:13;1.20;;;1.20;;
7193;SDS011;3638;48.820;9.244;2023-04-01T15:53:13;1.70;;;1.60;;
7193;SDS011;3638;48.820;9.244;2023-04-01T15:56:12;1.37;;;1.37;;
7193;SDS011;3638;48.820;9.244;2023-04-01T15:58:51;1.47;;;1.40;;
7193;SDS011;3638;48.820;9.244;2023-04-01T16:01:34;1.30;;;1.30;;
7193;SDS011;3638;48.820;9.244;2023-04-01T16:04:17;1.20;;;1.20;;
7193;SDS011;3638;48.820;9.244;2023-04-01T16:07:04;1.20;;;1.20;;
7193;SDS011;3638;48.820;9.244;2023-04-01T16:09:55;1.30;;;1.30;;
7193;SDS011;3638;48.820;9.244;2023-04-01T16:12:37;1.30;;;1.30;;
7193;SDS011;3638;48.820;9.244;2023-04-01T16:15:21;1.20;;;1.20;;
7193;SDS011;3638;48.820;9.244;2023-04-01T16:20:52;1.50;;;1.40;;
7193;SDS011;3638;48.820;9.244;2023-04-01T16:23:22;1.50;;;1.40;;
7193;SDS011;3638;48.820;9.244;2023-04-01T16:26:01;1.70;;;1.60;;
7193;SDS011;3638;48.820;9.244;2023-04-01T16:28:34;1.93;;;1.57;;
7193;SDS011;3638;48.820;9.244;2023-04-01T16:31:09;1.50;;;1.40;;
7193;SDS011;3638;48.820;9.244;2023-04-01T16:33:45;1.80;;;1.70;;
7193;SDS011;3638;48.820;9.244;2023-04-01T16:36:22;1.27;;;1.27;;
7193;SDS011;3638;48.820;9.244;2023-04-01T16:41:51;1.40;;;1.40;;
7193;SDS011;3638;48.820;9.244;2023-04-01T16:44:44;1.40;;;1.30;;
7193;SDS011;3638;48.820;9.244;2023-04-01T16:47:17;1.77;;;1.67;;
7193;SDS011;3638;48.820;9.244;2023-04-01T16:49:48;1.40;;;1.30;;
7193;SDS011;3638;48.820;9.244;2023-04-01T16:52:30;1.40;;;1.40;;
7193;SDS011;3638;48.820;9.244;2023-04-01T16:55:15;1.33;;;1.33;;
7193;SDS011;3638;48.820;9.244;2023-04-01T16:57:47;1.40;;;1.30;;
7193;SDS011;3638;48.820;9.244;2023-04-01T17:00:20;1.80;;;1.70;;
7193;SDS011;3638;48.820;9.244;2023-04-01T17:02:57;1.50;;;1.40;;
7193;SDS011;3638;48.820;9.244;2023-04-01T17:05:37;1.40;;;1.30;;
7193;SDS011;3638;48.820;9.244;2023-04-01T17:08:17;1.50;;;1.40;;
7193;SDS011;3638;48.820;9.244;2023-04-01T17:11:04;1.60;;;1.50;;
7193;SDS011;3638;48.820;9.244;2023-04-01T17:13:45;1.60;;;1.50;;
7193;SDS011;3638;48.820;9.244;2023-04-01T17:19:42;1.43;;;1.40;;
7193;SDS011;3638;48.820;9.244;2023-04-01T17:22:25;1.70;;;1.60;;
7193;SDS011;3638;48.820;9.244;2023-04-01T17:25:02;3.10;;;2.10;;
7193;SDS011;3638;48.820;9.244;2023-04-01T17:27:50;2.37;;;2.17;;
7193;SDS011;3638;48.820;9.244;2023-04-01T17:30:26;2.50;;;2.20;;
7193;SDS011;3638;48.820;9.244;2023-04-01T17:33:03;2.23;;;2.07;;
7193;SDS011;3638;48.820;9.244;2023-04-01T17:35:58;3.87;;;1.90;;
7193;SDS011;3638;48.820;9.244;2023-04-01T17:38:49;1.83;;;1.67;;
7193;SDS011;3638;48.820;9.244;2023-04-01T17:41:31;1.97;;;1.70;;
7193;SDS011;3638;48.820;9.244;2023-04-01T17:44:17;2.13;;;1.83;;
7193;SDS011;3638;48.820;9.244;2023-04-01T17:46:58;2.80;;;2.00;;
7193;SDS011;3638;48.820;9.244;2023-04-01T17:49:39;2.57;;;1.83;;
7193;SDS011;3638;48.820;9.244;2023-04-01T17:52:15;3.10;;;1.90;;
7193;SDS011;3638;48.820;9.244;2023-04-01T17:54:50;1.87;;;1.77;;
7193;SDS011;3638;48.820;9.244;2023-04-01T17:57:44;3.03;;;1.70;;
7193;SDS011;3638;48.820;9.244;2023-04-01T18:00:23;1.80;;;1.60;;